Time,TemperatureF,DewpointF,PressureIn,WindDirection,WindDirectionDegrees,WindSpeedMPH,WindSpeedGustMPH,Humidity,HourlyPrecipIn,Conditions,Clouds,dailyrainin,SolarRadiationWatts/m^2,SoftwareType,DateUTC
2013-11-17 00:04:00,41.7,19.7,29.32,East,90,0.0,2.3,41,0.00,CLR,SCT,0.00,0.0,WeatherDisplay:10.37,2013-11-17 06:04:00,
2013-11-17 00:09:00,41.7,19.7,29.35,NE,45,1.1,1.1,41,0.00,CLR,SCT,0.00,0.0,WeatherDisplay:10.37,2013-11-17 06:09:00,
2013-11-17 00:14:00,41.0,19.1,29.35,SW,225,0.0,0.0,41,0.00,CLR,SCT,0.00,0.0,WeatherDisplay:10.37,2013-11-17 06:14:00,
2013-11-17 00:19:00,40.6,18.7,29.35,SSE,158,0.0,0.0,41,0.00,CLR,SCT,0.00,0.0,WeatherDisplay:10.37,2013-11-17 06:19:00,
2013-11-17 00:24:00,40.5,18.6,29.35,ESE,112,2.0,2.6,41,0.00,CLR,SCT,0.00,0.0,WeatherDisplay:10.37,2013-11-17 06:24:00,
2013-11-17 00:29:00,40.3,18.4,29.35,ENE,68,0.0,1.1,41,0.00,CLR,SCT,0.00,0.0,WeatherDisplay:10.37,2013-11-17 06:29:00,
2013-11-17 00:34:00,40.3,19.0,29.35,NE,45,0.0,0.0,42,0.00,CLR,SCT,0.00,0.0,WeatherDisplay:10.37,2013-11-17 06:34:00,
2013-11-17 00:39:00,40.1,18.8,29.35,ENE,68,0.0,0.0,42,0.00,CLR,SCT,0.00,0.0,WeatherDisplay:10.37,2013-11-17 06:39:00,
2013-11-17 00:44:00,40.3,19.0,29.35,East,90,1.6,2.3,42,0.00,CLR,SCT,0.00,0.0,WeatherDisplay:10.37,2013-11-17 06:44:00,
2013-11-17 00:49:00,40.5,19.1,29.35,East,90,0.0,2.3,42,0.00,CLR,SCT,0.00,0.0,WeatherDisplay:10.37,2013-11-17 06:49:00,
2013-11-17 00:54:00,40.6,19.9,29.35,East,90,0.0,0.0,43,0.00,CLR,SCT,0.00,0.0,WeatherDisplay:10.37,2013-11-17 06:54:00,
2013-11-17 00:59:00,41.2,20.3,29.35,ENE,68,1.6,2.3,43,0.00,CLR,SCT,0.00,0.0,WeatherDisplay:10.37,2013-11-17 06:59:00,
2013-11-17 01:04:00,41.7,20.8,29.35,East,90,2.2,2.4,43,0.00,CLR,SCT,0.00,0.0,WeatherDisplay:10.37,2013-11-17 07:04:00,
2013-11-17 01:09:00,41.7,20.8,29.35,East,90,1.6,2.3,43,0.00,CLR,SCT,0.00,0.0,WeatherDisplay:10.37,2013-11-17 07:09:00,
2013-11-17 01:14:00,41.5,20.1,29.35,East,90,0.0,1.6,42,0.00,CLR,SCT,0.00,0.0,WeatherDisplay:10.37,2013-11-17 07:14:00,
2013-11-17 01:19:00,41.5,20.1,29.35,East,90,1.6,2.3,42,0.00,CLR,SCT,0.00,0.0,WeatherDisplay:10.37,2013-11-17 07:19:00,
2013-11-17 01:24:00,41.5,20.1,29.32,East,90,0.9,2.3,42,0.00,CLR,SCT,0.00,0.0,WeatherDisplay:10.37,2013-11-17 07:24:00,
2013-11-17 01:29:00,41.5,20.1,29.32,East,90,0.0,1.1,42,0.00,CLR,SCT,0.00,0.0,WeatherDisplay:10.37,2013-11-17 07:29:00,
2013-11-17 01:34:00,41.7,20.3,29.32,NE,45,0.0,0.0,42,0.00,CLR,SCT,0.00,0.0,WeatherDisplay:10.37,2013-11-17 07:34:00,
2013-11-17 01:39:00,41.9,21.0,29.32,ENE,68,0.0,0.0,43,0.00,CLR,SCT,0.00,0.0,WeatherDisplay:10.37,2013-11-17 07:39:00,
2013-11-17 01:44:00,42.3,20.8,29.32,NE,45,0.0,0.0,42,0.00,CLR,SCT,0.00,0.0,WeatherDisplay:10.37,2013-11-17 07:44:00,
2013-11-17 01:49:00,42.6,21.1,29.32,ENE,68,0.0,0.0,42,0.00,CLR,SCT,0.00,0.0,WeatherDisplay:10.37,2013-11-17 07:49:00,
2013-11-17 01:54:00,42.8,21.3,29.32,East,90,1.6,2.3,42,0.00,CLR,SCT,0.00,0.0,WeatherDisplay:10.37,2013-11-17 07:54:00,
2013-11-17 01:59:00,43.3,21.8,29.32,NNE,22,0.0,0.0,42,0.00,CLR,SCT,0.00,0.0,WeatherDisplay:10.37,2013-11-17 07:59:00,
2013-11-17 02:04:00,43.7,22.1,29.32,North,0,0.0,0.0,42,0.00,CLR,SCT,0.00,0.0,WeatherDisplay:10.37,2013-11-17 08:04:00,
2013-11-17 02:09:00,44.2,22.0,29.32,ENE,68,1.6,2.3,41,0.00,CLR,SCT,0.00,0.0,WeatherDisplay:10.37,2013-11-17 08:09:00,
2013-11-17 02:14:00,45.0,22.1,29.32,ENE,68,0.9,2.3,40,0.00,CLR,SCT,0.00,0.0,WeatherDisplay:10.37,2013-11-17 08:14:00,
2013-11-17 02:19:00,45.5,21.9,29.32,NNE,22,1.1,1.6,39,0.00,CLR,SCT,0.00,0.0,WeatherDisplay:10.37,2013-11-17 08:19:00,
2013-11-17 02:24:00,46.0,22.4,29.32,ENE,68,0.0,1.1,39,0.00,CLR,SCT,0.00,0.0,WeatherDisplay:10.37,2013-11-17 08:24:00,
2013-11-17 02:29:00,46.4,22.1,29.32,NNW,338,1.6,2.3,38,0.00,CLR,SCT,0.00,0.0,WeatherDisplay:10.37,2013-11-17 08:29:00,
2013-11-17 02:34:00,46.6,22.3,29.32,NNW,338,0.0,1.1,38,0.00,CLR,SCT,0.00,0.0,WeatherDisplay:10.37,2013-11-17 08:34:00,
2013-11-17 02:39:00,46.8,22.5,29.32,WNW,292,1.6,2.3,38,0.00,CLR,SCT,0.00,0.0,WeatherDisplay:10.37,2013-11-17 08:39:00,
2013-11-17 02:44:00,46.9,22.6,29.32,North,0,2.0,2.6,38,0.00,CLR,SCT,0.00,0.0,WeatherDisplay:10.37,2013-11-17 08:44:00,
2013-11-17 02:49:00,47.1,22.1,29.32,North,0,0.9,2.3,37,0.00,CLR,SCT,0.00,0.0,WeatherDisplay:10.37,2013-11-17 08:49:00,
2013-11-17 02:54:00,47.3,22.3,29.32,NNE,22,1.1,2.3,37,0.00,CLR,SCT,0.00,0.0,WeatherDisplay:10.37,2013-11-17 08:54:00,
2013-11-17 02:59:00,47.3,22.3,29.32,SW,225,0.0,1.1,37,0.00,CLR,SCT,0.00,0.0,WeatherDisplay:10.37,2013-11-17 08:59:00,
2013-11-17 03:04:00,47.3,22.3,29.32,North,0,0.0,2.2,37,0.00,CLR,SCT,0.00,0.0,WeatherDisplay:10.37,2013-11-17 09:04:00,
2013-11-17 03:09:00,47.5,22.5,29.32,ENE,68,0.0,2.3,37,0.00,CLR,SCT,0.00,0.0,WeatherDisplay:10.37,2013-11-17 09:09:00,
2013-11-17 03:14:00,47.5,22.5,29.32,North,0,1.1,2.3,37,0.00,CLR,SCT,0.00,0.0,WeatherDisplay:10.37,2013-11-17 09:14:00,
2013-11-17 03:19:00,47.7,22.6,29.32,NNW,338,2.0,3.5,37,0.00,CLR,SCT,0.00,0.0,WeatherDisplay:10.37,2013-11-17 09:19:00,
2013-11-17 06:53:00,47.7,22.6,29.32,North,0,0.0,1.1,37,0.00,CLR,SCT,0.00,0.0,WeatherDisplay:10.37,2013-11-17 12:53:00,
2013-11-17 06:58:00,44.8,20.7,29.38,NW,315,2.6,4.6,38,0.05,CLR,SCT,0.09,0.0,WeatherDisplay:10.37,2013-11-17 12:58:00,
2013-11-17 07:04:00,45.1,21.0,29.38,ENE,68,2.9,4.6,38,0.05,OVC,SCT,0.09,0.0,WeatherDisplay:10.37,2013-11-17 13:04:00,
2013-11-17 07:09:00,45.1,21.0,29.41,North,0,2.2,4.6,38,0.05,OVC,SCT,0.09,0.0,WeatherDisplay:10.37,2013-11-17 13:09:00,
2013-11-17 07:14:00,45.3,21.2,29.41,NNW,338,2.9,5.8,38,0.05,OVC,SCT,0.09,0.0,WeatherDisplay:10.37,2013-11-17 13:14:00,
2013-11-17 07:19:00,45.3,21.2,29.41,North,0,2.2,2.9,38,0.05,OVC,SCT,0.09,0.0,WeatherDisplay:10.37,2013-11-17 13:19:00,
2013-11-17 07:24:00,45.3,21.8,29.38,East,90,2.6,3.6,39,0.05,OVC,SCT,0.09,0.0,WeatherDisplay:10.37,2013-11-17 13:24:00,
2013-11-17 07:29:00,45.1,21.6,29.38,East,90,2.2,4.6,39,0.05,OVC,SCT,0.09,0.0,WeatherDisplay:10.37,2013-11-17 13:29:00,
2013-11-17 07:34:00,45.1,22.2,29.38,NNE,22,2.4,3.5,40,0.05,OVC,SCT,0.09,0.0,WeatherDisplay:10.37,2013-11-17 13:34:00,
2013-11-17 07:39:00,45.0,22.6,29.41,North,0,2.0,3.5,41,0.00,OVC,SCT,0.09,0.0,WeatherDisplay:10.37,2013-11-17 13:39:00,
2013-11-17 07:44:00,44.8,21.9,29.41,ENE,68,1.6,2.4,40,0.00,OVC,SCT,0.09,0.0,WeatherDisplay:10.37,2013-11-17 13:44:00,
2013-11-17 07:49:00,44.8,21.9,29.41,NNE,22,1.4,2.3,40,0.00,OVC,SCT,0.09,0.0,WeatherDisplay:10.37,2013-11-17 13:49:00,
2013-11-17 07:54:00,44.8,22.5,29.41,NW,315,1.4,3.5,41,0.00,OVC,SCT,0.09,0.0,WeatherDisplay:10.37,2013-11-17 13:54:00,
2013-11-17 07:59:00,44.8,22.5,29.41,East,90,2.2,2.3,41,0.00,OVC,SCT,0.09,0.0,WeatherDisplay:10.37,2013-11-17 13:59:00,
2013-11-17 08:04:00,44.8,23.6,29.41,West,270,1.6,3.5,43,0.00,OVC,SCT,0.09,0.0,WeatherDisplay:10.37,2013-11-17 14:04:00,
2013-11-17 08:09:00,44.8,23.1,29.41,East,90,3.3,5.8,42,0.00,OVC,SCT,0.09,0.0,WeatherDisplay:10.37,2013-11-17 14:09:00,
2013-11-17 08:14:00,44.8,23.1,29.41,ENE,68,1.4,2.3,42,0.00,OVC,SCT,0.09,0.0,WeatherDisplay:10.37,2013-11-17 14:14:00,
2013-11-17 08:19:00,44.8,23.6,29.41,SSW,202,0.9,2.3,43,0.00,OVC,SCT,0.09,0.0,WeatherDisplay:10.37,2013-11-17 14:19:00,
2013-11-17 08:24:00,44.8,23.6,29.41,NNE,22,0.0,0.0,43,0.00,OVC,SCT,0.09,0.0,WeatherDisplay:10.37,2013-11-17 14:24:00,
2013-11-17 08:29:00,44.8,23.6,29.41,NNE,22,0.0,2.3,43,0.00,OVC,SCT,0.09,0.0,WeatherDisplay:10.37,2013-11-17 14:29:00,
2013-11-17 08:34:00,44.8,23.6,29.41,ENE,68,0.0,1.1,43,0.00,OVC,SCT,0.09,0.0,WeatherDisplay:10.37,2013-11-17 14:34:00,
2013-11-17 08:39:00,45.0,23.8,29.44,ENE,68,0.0,0.0,43,0.00,OVC,SCT,0.09,0.0,WeatherDisplay:10.37,2013-11-17 14:39:00,
2013-11-17 08:44:00,45.0,23.8,29.44,ENE,68,0.0,0.0,43,0.00,OVC,SCT,0.09,0.0,WeatherDisplay:10.37,2013-11-17 14:44:00,
2013-11-17 08:49:00,45.1,23.9,29.44,East,90,0.0,1.1,43,0.00,OVC,SCT,0.09,0.0,WeatherDisplay:10.37,2013-11-17 14:49:00,
2013-11-17 08:54:00,45.3,25.2,29.44,ENE,68,1.1,2.6,45,0.00,OVC,SCT,0.09,0.0,WeatherDisplay:10.37,2013-11-17 14:54:00,
2013-11-17 08:59:00,45.5,25.4,29.44,ESE,112,1.6,3.5,45,0.00,OVC,SCT,0.09,0.0,WeatherDisplay:10.37,2013-11-17 14:59:00,
2013-11-17 09:04:00,45.5,25.4,29.44,ESE,112,0.0,0.0,45,0.00,OVC,SCT,0.09,0.0,WeatherDisplay:10.37,2013-11-17 15:04:00,
2013-11-17 09:09:00,45.5,25.4,29.44,ESE,112,0.0,0.0,45,0.00,OVC,SCT,0.09,0.0,WeatherDisplay:10.37,2013-11-17 15:09:00,
2013-11-17 09:14:00,45.5,25.4,29.44,ESE,112,0.0,0.0,45,0.00,OVC,SCT,0.09,0.0,WeatherDisplay:10.37,2013-11-17 15:14:00,
2013-11-17 09:19:00,45.5,25.4,29.44,ESE,112,0.0,0.0,45,0.00,OVC,SCT,0.09,0.0,WeatherDisplay:10.37,2013-11-17 15:19:00,
2013-11-17 09:24:00,45.5,25.4,29.44,ESE,112,0.0,0.0,45,0.00,OVC,SCT,0.09,0.0,WeatherDisplay:10.37,2013-11-17 15:24:00,
2013-11-17 09:29:00,45.5,25.4,29.44,ESE,112,0.0,0.0,45,0.00,OVC,SCT,0.09,0.0,WeatherDisplay:10.37,2013-11-17 15:29:00,
2013-11-17 09:34:00,45.5,25.4,29.44,ESE,112,0.0,0.0,45,0.00,OVC,SCT,0.09,0.0,WeatherDisplay:10.37,2013-11-17 15:34:00,
2013-11-17 09:39:00,45.5,25.4,29.44,ESE,112,0.0,0.0,45,0.00,OVC,SCT,0.09,0.0,WeatherDisplay:10.37,2013-11-17 15:39:00,
2013-11-17 09:44:00,45.5,25.4,29.44,ESE,112,0.0,0.0,45,0.00,OVC,SCT,0.09,0.0,WeatherDisplay:10.37,2013-11-17 15:44:00,
2013-11-17 09:49:00,45.5,25.4,29.44,ESE,112,0.0,0.0,45,0.00,OVC,SCT,0.09,0.0,WeatherDisplay:10.37,2013-11-17 15:49:00,
2013-11-17 09:54:00,45.5,25.4,29.44,ESE,112,0.0,0.0,45,0.00,OVC,SCT,0.09,0.0,WeatherDisplay:10.37,2013-11-17 15:54:00,
2013-11-17 09:59:00,45.5,25.4,29.44,ESE,112,0.0,0.0,45,0.00,OVC,SCT,0.09,0.0,WeatherDisplay:10.37,2013-11-17 15:59:00,
2013-11-17 10:04:00,45.5,25.4,29.44,ESE,112,0.0,0.0,45,0.00,OVC,SCT,0.09,0.0,WeatherDisplay:10.37,2013-11-17 16:04:00,
2013-11-17 10:09:00,45.5,25.4,29.44,ESE,112,0.0,0.0,45,0.00,OVC,SCT,0.09,0.0,WeatherDisplay:10.37,2013-11-17 16:09:00,
2013-11-17 10:14:00,45.5,25.4,29.44,ESE,112,0.0,0.0,45,0.00,OVC,SCT,0.09,0.0,WeatherDisplay:10.37,2013-11-17 16:14:00,
2013-11-17 10:19:00,45.5,25.4,29.44,ESE,112,0.0,0.0,45,0.00,OVC,SCT,0.09,0.0,WeatherDisplay:10.37,2013-11-17 16:19:00,
2013-11-17 10:24:00,45.5,25.4,29.44,ESE,112,0.0,0.0,45,0.00,OVC,SCT,0.09,0.0,WeatherDisplay:10.37,2013-11-17 16:24:00,
2013-11-17 10:29:00,45.5,25.4,29.44,ESE,112,0.0,0.0,45,0.00,OVC,SCT,0.09,0.0,WeatherDisplay:10.37,2013-11-17 16:29:00,
2013-11-17 10:34:00,45.5,25.4,29.44,ESE,112,0.0,0.0,45,0.00,OVC,SCT,0.09,0.0,WeatherDisplay:10.37,2013-11-17 16:34:00,
2013-11-17 10:39:00,45.5,25.4,29.44,ESE,112,0.0,0.0,45,0.00,OVC,SCT,0.09,0.0,WeatherDisplay:10.37,2013-11-17 16:39:00,
2013-11-17 10:44:00,45.5,25.4,29.44,ESE,112,0.0,0.0,45,0.00,OVC,SCT,0.09,0.0,WeatherDisplay:10.37,2013-11-17 16:44:00,
2013-11-17 10:49:00,45.5,25.4,29.44,ESE,112,0.0,0.0,45,0.00,OVC,SCT,0.09,0.0,WeatherDisplay:10.37,2013-11-17 16:49:00,
2013-11-17 10:54:00,45.5,25.4,29.44,ESE,112,0.0,0.0,45,0.00,OVC,SCT,0.09,0.0,WeatherDisplay:10.37,2013-11-17 16:54:00,
2013-11-17 10:59:00,45.5,25.4,29.44,ESE,112,0.0,0.0,45,0.00,OVC,SCT,0.09,0.0,WeatherDisplay:10.37,2013-11-17 16:59:00,
2013-11-17 11:04:00,45.5,25.4,29.44,ESE,112,0.0,0.0,45,0.00,OVC,SCT,0.09,0.0,WeatherDisplay:10.37,2013-11-17 17:04:00,
2013-11-17 11:09:00,45.5,25.4,29.44,ESE,112,0.0,0.0,45,0.00,OVC,SCT,0.09,0.0,WeatherDisplay:10.37,2013-11-17 17:09:00,
2013-11-17 11:14:00,45.5,25.4,29.44,ESE,112,0.0,0.0,45,0.00,OVC,SCT,0.09,0.0,WeatherDisplay:10.37,2013-11-17 17:14:00,
2013-11-17 11:19:00,45.5,25.4,29.44,ESE,112,0.0,0.0,45,0.00,OVC,SCT,0.09,0.0,WeatherDisplay:10.37,2013-11-17 17:19:00,
2013-11-17 11:24:00,45.5,25.4,29.44,ESE,112,0.0,0.0,45,0.00,OVC,SCT,0.09,0.0,WeatherDisplay:10.37,2013-11-17 17:24:00,
2013-11-17 11:29:00,45.5,25.4,29.44,ESE,112,0.0,0.0,45,0.00,OVC,SCT,0.09,0.0,WeatherDisplay:10.37,2013-11-17 17:29:00,
2013-11-17 11:34:00,45.5,25.4,29.44,ESE,112,0.0,0.0,45,0.00,OVC,SCT,0.09,0.0,WeatherDisplay:10.37,2013-11-17 17:34:00,
2013-11-17 11:39:00,45.5,25.4,29.44,ESE,112,0.0,0.0,45,0.00,OVC,SCT,0.09,0.0,WeatherDisplay:10.37,2013-11-17 17:39:00,
2013-11-17 11:44:00,45.5,25.4,29.44,ESE,112,0.0,0.0,45,0.00,OVC,SCT,0.09,0.0,WeatherDisplay:10.37,2013-11-17 17:44:00,
2013-11-17 11:49:00,45.5,25.4,29.44,ESE,112,0.0,0.0,45,0.00,OVC,SCT,0.09,0.0,WeatherDisplay:10.37,2013-11-17 17:49:00,
2013-11-17 11:54:00,45.5,25.4,29.44,ESE,112,0.0,0.0,45,0.00,OVC,SCT,0.09,0.0,WeatherDisplay:10.37,2013-11-17 17:54:00,
2013-11-17 11:59:00,45.5,25.4,29.44,ESE,112,0.0,0.0,45,0.00,OVC,SCT,0.09,0.0,WeatherDisplay:10.37,2013-11-17 17:59:00,
2013-11-17 12:04:00,45.5,25.4,29.44,ESE,112,0.0,0.0,45,0.00,OVC,SCT,0.09,0.0,WeatherDisplay:10.37,2013-11-17 18:04:00,
2013-11-17 12:09:00,45.5,25.4,29.44,ESE,112,0.0,0.0,45,0.00,OVC,SCT,0.09,0.0,WeatherDisplay:10.37,2013-11-17 18:09:00,
2013-11-17 12:14:00,45.5,25.4,29.44,ESE,112,0.0,0.0,45,0.00,OVC,SCT,0.09,0.0,WeatherDisplay:10.37,2013-11-17 18:14:00,
2013-11-17 12:19:00,45.5,25.4,29.44,ESE,112,0.0,0.0,45,0.00,OVC,SCT,0.09,0.0,WeatherDisplay:10.37,2013-11-17 18:19:00,
2013-11-17 12:24:00,45.5,25.4,29.44,ESE,112,0.0,0.0,45,0.00,OVC,SCT,0.09,0.0,WeatherDisplay:10.37,2013-11-17 18:24:00,
2013-11-17 12:29:00,45.5,25.4,29.44,ESE,112,0.0,0.0,45,0.00,OVC,SCT,0.09,0.0,WeatherDisplay:10.37,2013-11-17 18:29:00,
2013-11-17 12:34:00,45.5,25.4,29.44,ESE,112,0.0,0.0,45,0.00,OVC,SCT,0.09,0.0,WeatherDisplay:10.37,2013-11-17 18:34:00,
2013-11-17 12:39:00,45.5,25.4,29.44,ESE,112,0.0,0.0,45,0.00,OVC,SCT,0.09,0.0,WeatherDisplay:10.37,2013-11-17 18:39:00,
2013-11-17 12:44:00,45.5,25.4,29.44,ESE,112,0.0,0.0,45,0.00,OVC,SCT,0.09,0.0,WeatherDisplay:10.37,2013-11-17 18:44:00,
2013-11-17 12:49:00,45.5,25.4,29.44,ESE,112,0.0,0.0,45,0.00,OVC,SCT,0.09,0.0,WeatherDisplay:10.37,2013-11-17 18:49:00,
2013-11-17 12:54:00,45.5,25.4,29.44,ESE,112,0.0,0.0,45,0.00,OVC,SCT,0.09,0.0,WeatherDisplay:10.37,2013-11-17 18:54:00,
2013-11-17 12:59:00,45.5,25.4,29.44,ESE,112,0.0,0.0,45,0.00,OVC,SCT,0.09,0.0,WeatherDisplay:10.37,2013-11-17 18:59:00,
2013-11-17 13:04:00,45.5,25.4,29.44,ESE,112,0.0,0.0,45,0.00,OVC,SCT,0.09,0.0,WeatherDisplay:10.37,2013-11-17 19:04:00,
2013-11-17 13:09:00,45.5,25.4,29.44,ESE,112,0.0,0.0,45,0.00,OVC,SCT,0.09,0.0,WeatherDisplay:10.37,2013-11-17 19:09:00,
2013-11-17 13:14:00,45.5,25.4,29.44,ESE,112,0.0,0.0,45,0.00,OVC,SCT,0.09,0.0,WeatherDisplay:10.37,2013-11-17 19:14:00,
2013-11-17 13:19:00,45.5,25.4,29.44,ESE,112,0.0,0.0,45,0.00,OVC,SCT,0.09,0.0,WeatherDisplay:10.37,2013-11-17 19:19:00,
2013-11-17 13:24:00,45.5,25.4,29.44,ESE,112,0.0,0.0,45,0.00,OVC,SCT,0.09,0.0,WeatherDisplay:10.37,2013-11-17 19:24:00,
2013-11-17 13:29:00,45.5,25.4,29.44,ESE,112,0.0,0.0,45,0.00,OVC,SCT,0.09,0.0,WeatherDisplay:10.37,2013-11-17 19:29:00,
2013-11-17 13:35:00,45.5,25.4,29.44,ESE,112,0.0,0.0,45,0.00,OVC,SCT,0.09,0.0,WeatherDisplay:10.37,2013-11-17 19:35:00,
2013-11-17 13:40:00,45.5,25.4,29.44,ESE,112,0.0,0.0,45,0.00,OVC,SCT,0.09,0.0,WeatherDisplay:10.37,2013-11-17 19:40:00,
2013-11-17 13:45:00,45.5,25.4,29.44,ESE,112,0.0,0.0,45,0.00,OVC,SCT,0.09,0.0,WeatherDisplay:10.37,2013-11-17 19:45:00,
2013-11-17 13:50:00,45.5,25.4,29.44,ESE,112,0.0,0.0,45,0.00,OVC,SCT,0.09,0.0,WeatherDisplay:10.37,2013-11-17 19:50:00,
2013-11-17 13:55:00,45.5,25.4,29.44,ESE,112,0.0,0.0,45,0.00,OVC,SCT,0.09,0.0,WeatherDisplay:10.37,2013-11-17 19:55:00,
2013-11-17 14:00:00,45.5,25.4,29.44,ESE,112,0.0,0.0,45,0.00,OVC,SCT,0.09,0.0,WeatherDisplay:10.37,2013-11-17 20:00:00,
2013-11-17 14:05:00,45.5,25.4,29.44,ESE,112,0.0,0.0,45,0.00,OVC,SCT,0.09,0.0,WeatherDisplay:10.37,2013-11-17 20:05:00,
2013-11-17 14:10:00,45.5,25.4,29.44,ESE,112,0.0,0.0,45,0.00,OVC,SCT,0.09,0.0,WeatherDisplay:10.37,2013-11-17 20:10:00,
2013-11-17 14:15:00,45.5,25.4,29.44,ESE,112,0.0,0.0,45,0.00,OVC,SCT,0.09,0.0,WeatherDisplay:10.37,2013-11-17 20:15:00,
2013-11-17 14:20:00,45.5,25.4,29.44,ESE,112,0.0,0.0,45,0.00,OVC,SCT,0.09,0.0,WeatherDisplay:10.37,2013-11-17 20:20:00,
2013-11-17 14:25:00,45.5,25.4,29.44,ESE,112,0.0,0.0,45,0.00,OVC,SCT,0.09,0.0,WeatherDisplay:10.37,2013-11-17 20:25:00,
2013-11-17 14:30:00,45.5,25.4,29.44,ESE,112,0.0,0.0,45,0.00,OVC,SCT,0.09,0.0,WeatherDisplay:10.37,2013-11-17 20:30:00,
2013-11-17 14:35:00,45.5,25.4,29.44,ESE,112,0.0,0.0,45,0.00,OVC,SCT,0.09,0.0,WeatherDisplay:10.37,2013-11-17 20:35:00,
2013-11-17 14:40:00,45.5,25.4,29.44,ESE,112,0.0,0.0,45,0.00,OVC,SCT,0.09,0.0,WeatherDisplay:10.37,2013-11-17 20:40:00,
2013-11-17 14:45:00,45.5,25.4,29.44,ESE,112,0.0,0.0,45,0.00,OVC,SCT,0.09,0.0,WeatherDisplay:10.37,2013-11-17 20:45:00,
2013-11-17 14:50:00,45.5,25.4,29.44,ESE,112,0.0,0.0,45,0.00,OVC,SCT,0.09,0.0,WeatherDisplay:10.37,2013-11-17 20:50:00,
2013-11-17 14:55:00,45.5,25.4,29.44,ESE,112,0.0,0.0,45,0.00,OVC,SCT,0.09,0.0,WeatherDisplay:10.37,2013-11-17 20:55:00,
2013-11-17 15:00:00,45.5,25.4,29.44,ESE,112,0.0,0.0,45,0.00,OVC,SCT,0.09,0.0,WeatherDisplay:10.37,2013-11-17 21:00:00,
2013-11-17 15:05:00,45.5,25.4,29.44,ESE,112,0.0,0.0,45,0.00,OVC,SCT,0.09,0.0,WeatherDisplay:10.37,2013-11-17 21:05:00,
2013-11-17 15:10:00,45.5,25.4,29.44,ESE,112,0.0,0.0,45,0.00,OVC,SCT,0.09,0.0,WeatherDisplay:10.37,2013-11-17 21:10:00,
2013-11-17 15:15:00,45.5,25.4,29.44,ESE,112,0.0,0.0,45,0.00,OVC,SCT,0.09,0.0,WeatherDisplay:10.37,2013-11-17 21:15:00,
2013-11-17 15:20:00,45.5,25.4,29.44,ESE,112,0.0,0.0,45,0.00,OVC,SCT,0.09,0.0,WeatherDisplay:10.37,2013-11-17 21:20:00,
2013-11-17 15:25:00,45.5,25.4,29.44,ESE,112,0.0,0.0,45,0.00,OVC,SCT,0.09,0.0,WeatherDisplay:10.37,2013-11-17 21:25:00,
2013-11-17 15:30:00,45.5,25.4,29.44,ESE,112,0.0,0.0,45,0.00,OVC,SCT,0.09,0.0,WeatherDisplay:10.37,2013-11-17 21:30:00,
2013-11-17 15:35:00,45.5,25.4,29.44,ESE,112,0.0,0.0,45,0.00,OVC,SCT,0.09,0.0,WeatherDisplay:10.37,2013-11-17 21:35:00,
2013-11-17 15:40:00,45.5,25.4,29.44,ESE,112,0.0,0.0,45,0.00,OVC,SCT,0.09,0.0,WeatherDisplay:10.37,2013-11-17 21:40:00,
2013-11-17 15:45:00,45.5,25.4,29.44,ESE,112,0.0,0.0,45,0.00,OVC,SCT,0.09,0.0,WeatherDisplay:10.37,2013-11-17 21:45:00,
2013-11-17 15:50:00,45.5,25.4,29.44,ESE,112,0.0,0.0,45,0.00,OVC,SCT,0.09,0.0,WeatherDisplay:10.37,2013-11-17 21:50:00,
2013-11-17 15:55:00,45.5,25.4,29.44,ESE,112,0.0,0.0,45,0.00,OVC,SCT,0.09,0.0,WeatherDisplay:10.37,2013-11-17 21:55:00,
2013-11-17 16:00:00,45.5,25.4,29.44,ESE,112,0.0,0.0,45,0.00,OVC,SCT,0.09,0.0,WeatherDisplay:10.37,2013-11-17 22:00:00,
2013-11-17 16:05:00,45.5,25.4,29.44,ESE,112,0.0,0.0,45,0.00,OVC,SCT,0.09,0.0,WeatherDisplay:10.37,2013-11-17 22:05:00,
2013-11-17 16:10:00,45.5,25.4,29.44,ESE,112,0.0,0.0,45,0.00,OVC,SCT,0.09,0.0,WeatherDisplay:10.37,2013-11-17 22:10:00,
2013-11-17 16:15:00,45.5,25.4,29.44,ESE,112,0.0,0.0,45,0.00,OVC,SCT,0.09,0.0,WeatherDisplay:10.37,2013-11-17 22:15:00,
2013-11-17 16:20:00,45.5,25.4,29.44,ESE,112,0.0,0.0,45,0.00,OVC,SCT,0.09,0.0,WeatherDisplay:10.37,2013-11-17 22:20:00,
2013-11-17 16:25:00,45.5,25.4,29.44,ESE,112,0.0,0.0,45,0.00,OVC,SCT,0.09,0.0,WeatherDisplay:10.37,2013-11-17 22:25:00,
2013-11-17 16:30:00,45.5,25.4,29.44,ESE,112,0.0,0.0,45,0.00,OVC,SCT,0.09,0.0,WeatherDisplay:10.37,2013-11-17 22:30:00,
2013-11-17 16:36:00,45.5,25.4,29.44,ESE,112,0.0,0.0,45,0.00,OVC,SCT,0.09,0.0,WeatherDisplay:10.37,2013-11-17 22:36:00,
2013-11-17 16:41:00,45.5,25.4,29.44,ESE,112,0.0,0.0,45,0.00,OVC,SCT,0.09,0.0,WeatherDisplay:10.37,2013-11-17 22:41:00,
2013-11-17 16:46:00,45.5,25.4,29.44,ESE,112,0.0,0.0,45,0.00,OVC,SCT,0.09,0.0,WeatherDisplay:10.37,2013-11-17 22:46:00,
2013-11-17 16:51:00,45.5,25.4,29.44,ESE,112,0.0,0.0,45,0.00,OVC,SCT,0.09,0.0,WeatherDisplay:10.37,2013-11-17 22:51:00,
2013-11-17 16:56:00,45.5,25.4,29.44,ESE,112,0.0,0.0,45,0.00,OVC,SCT,0.09,0.0,WeatherDisplay:10.37,2013-11-17 22:56:00,
2013-11-17 17:01:00,45.5,25.4,29.44,ESE,112,0.0,0.0,45,0.00,OVC,SCT,0.09,0.0,WeatherDisplay:10.37,2013-11-17 23:01:00,
2013-11-17 17:06:00,45.5,25.4,29.44,ESE,112,0.0,0.0,45,0.00,OVC,SCT,0.09,0.0,WeatherDisplay:10.37,2013-11-17 23:06:00,
2013-11-17 17:11:00,45.5,25.4,29.44,ESE,112,0.0,0.0,45,0.00,OVC,SCT,0.09,0.0,WeatherDisplay:10.37,2013-11-17 23:11:00,
2013-11-17 17:15:00,32.7,17.0,30.06,NW,312,1.0,15.0,52,0.00,CLR,SCT,0.00,0.0,WeatherDisplay:10.37,2013-11-17 23:15:00,
2013-11-17 17:16:00,45.5,25.4,29.44,ESE,112,0.0,0.0,45,0.00,OVC,SCT,0.09,0.0,WeatherDisplay:10.37,2013-11-17 23:16:00,
2013-11-17 17:21:00,45.5,25.4,29.44,ESE,112,0.0,0.0,45,0.00,OVC,SCT,0.09,0.0,WeatherDisplay:10.37,2013-11-17 23:21:00,
2013-11-17 17:26:00,45.5,25.4,29.44,ESE,112,0.0,0.0,45,0.00,OVC,SCT,0.09,0.0,WeatherDisplay:10.37,2013-11-17 23:26:00,
2013-11-17 17:31:00,45.5,25.4,29.44,ESE,112,0.0,0.0,45,0.00,OVC,SCT,0.09,0.0,WeatherDisplay:10.37,2013-11-17 23:31:00,
2013-11-17 17:36:00,45.5,25.4,29.44,ESE,112,0.0,0.0,45,0.00,CLR,SCT,0.09,0.0,WeatherDisplay:10.37,2013-11-17 23:36:00,
2013-11-17 17:41:00,45.5,25.4,29.44,ESE,112,0.0,0.0,45,0.00,CLR,SCT,0.09,0.0,WeatherDisplay:10.37,2013-11-17 23:41:00,
2013-11-17 17:46:00,45.5,25.4,29.44,ESE,112,0.0,0.0,45,0.00,CLR,SCT,0.09,0.0,WeatherDisplay:10.37,2013-11-17 23:46:00,
2013-11-17 17:51:00,45.5,25.4,29.44,ESE,112,0.0,0.0,45,0.00,CLR,SCT,0.09,0.0,WeatherDisplay:10.37,2013-11-17 23:51:00,
2013-11-17 17:56:00,45.5,25.4,29.44,ESE,112,0.0,0.0,45,0.00,CLR,SCT,0.09,0.0,WeatherDisplay:10.37,2013-11-17 23:56:00,
2013-11-17 18:01:00,45.5,25.4,29.44,ESE,112,0.0,0.0,45,0.00,CLR,SCT,0.09,0.0,WeatherDisplay:10.37,2013-11-18 00:01:00,
2013-11-17 18:06:00,45.5,25.4,29.44,ESE,112,0.0,0.0,45,0.00,CLR,SCT,0.09,0.0,WeatherDisplay:10.37,2013-11-18 00:06:00,
2013-11-17 18:11:00,45.5,25.4,29.44,ESE,112,0.0,0.0,45,0.00,CLR,SCT,0.09,0.0,WeatherDisplay:10.37,2013-11-18 00:11:00,
2013-11-17 18:16:00,45.5,25.4,29.44,ESE,112,0.0,0.0,45,0.00,CLR,SCT,0.09,0.0,WeatherDisplay:10.37,2013-11-18 00:16:00,
2013-11-17 18:21:00,45.5,25.4,29.44,ESE,112,0.0,0.0,45,0.00,CLR,SCT,0.09,0.0,WeatherDisplay:10.37,2013-11-18 00:21:00,
2013-11-17 18:27:00,45.5,25.4,29.44,ESE,112,0.0,0.0,45,0.00,CLR,SCT,0.09,0.0,WeatherDisplay:10.37,2013-11-18 00:27:00,
2013-11-17 18:32:00,45.5,25.4,29.44,ESE,112,0.0,0.0,45,0.00,CLR,SCT,0.09,0.0,WeatherDisplay:10.37,2013-11-18 00:32:00,
2013-11-17 18:37:00,45.5,25.4,29.44,ESE,112,0.0,0.0,45,0.00,CLR,SCT,0.09,0.0,WeatherDisplay:10.37,2013-11-18 00:37:00,
2013-11-17 18:42:00,45.5,25.4,29.44,ESE,112,0.0,0.0,45,0.00,CLR,SCT,0.09,0.0,WeatherDisplay:10.37,2013-11-18 00:42:00,
2013-11-17 18:47:00,45.5,25.4,29.44,ESE,112,0.0,0.0,45,0.00,CLR,SCT,0.09,0.0,WeatherDisplay:10.37,2013-11-18 00:47:00,
2013-11-17 18:52:00,45.5,25.4,29.44,ESE,112,0.0,0.0,45,0.00,CLR,SCT,0.09,0.0,WeatherDisplay:10.37,2013-11-18 00:52:00,
2013-11-17 18:57:00,45.5,25.4,29.44,ESE,112,0.0,0.0,45,0.00,CLR,SCT,0.09,0.0,WeatherDisplay:10.37,2013-11-18 00:57:00,
2013-11-17 19:02:00,45.5,25.4,29.44,ESE,112,0.0,0.0,45,0.00,CLR,SCT,0.09,0.0,WeatherDisplay:10.37,2013-11-18 01:02:00,
2013-11-17 19:07:00,45.5,25.4,29.44,ESE,112,0.0,0.0,45,0.00,CLR,SCT,0.09,0.0,WeatherDisplay:10.37,2013-11-18 01:07:00,
2013-11-17 19:12:00,45.5,25.4,29.44,ESE,112,0.0,0.0,45,0.00,CLR,SCT,0.09,0.0,WeatherDisplay:10.37,2013-11-18 01:12:00,
2013-11-17 19:17:00,45.5,25.4,29.44,ESE,112,0.0,0.0,45,0.00,CLR,SCT,0.09,0.0,WeatherDisplay:10.37,2013-11-18 01:17:00,
2013-11-17 19:22:00,45.5,25.4,29.44,ESE,112,0.0,0.0,45,0.00,CLR,SCT,0.09,0.0,WeatherDisplay:10.37,2013-11-18 01:22:00,
2013-11-17 19:27:00,45.5,25.4,29.44,ESE,112,0.0,0.0,45,0.00,CLR,SCT,0.09,0.0,WeatherDisplay:10.37,2013-11-18 01:27:00,
2013-11-17 19:32:00,45.5,25.4,29.44,ESE,112,0.0,0.0,45,0.00,CLR,SCT,0.09,0.0,WeatherDisplay:10.37,2013-11-18 01:32:00,
2013-11-17 19:37:00,45.5,25.4,29.44,ESE,112,0.0,0.0,45,0.00,CLR,SCT,0.09,0.0,WeatherDisplay:10.37,2013-11-18 01:37:00,
2013-11-17 19:42:00,45.5,25.4,29.44,ESE,112,0.0,0.0,45,0.00,CLR,SCT,0.09,0.0,WeatherDisplay:10.37,2013-11-18 01:42:00,
2013-11-17 19:47:00,45.5,25.4,29.44,ESE,112,0.0,0.0,45,0.00,CLR,SCT,0.09,0.0,WeatherDisplay:10.37,2013-11-18 01:47:00,
2013-11-17 19:52:00,45.5,25.4,29.44,ESE,112,0.0,0.0,45,0.00,CLR,SCT,0.09,0.0,WeatherDisplay:10.37,2013-11-18 01:52:00,
2013-11-17 19:58:00,45.5,25.4,29.44,ESE,112,0.0,0.0,45,0.00,CLR,SCT,0.09,0.0,WeatherDisplay:10.37,2013-11-18 01:58:00,
2013-11-17 20:03:00,45.5,25.4,29.44,ESE,112,0.0,0.0,45,0.00,CLR,SCT,0.09,0.0,WeatherDisplay:10.37,2013-11-18 02:03:00,
2013-11-17 20:08:00,45.5,25.4,29.44,ESE,112,0.0,0.0,45,0.00,CLR,SCT,0.09,0.0,WeatherDisplay:10.37,2013-11-18 02:08:00,
2013-11-17 20:13:00,45.5,25.4,29.44,ESE,112,0.0,0.0,45,0.00,CLR,SCT,0.09,0.0,WeatherDisplay:10.37,2013-11-18 02:13:00,
2013-11-17 20:18:00,45.5,25.4,29.44,ESE,112,0.0,0.0,45,0.00,CLR,SCT,0.09,0.0,WeatherDisplay:10.37,2013-11-18 02:18:00,
2013-11-17 20:23:00,45.5,25.4,29.44,ESE,112,0.0,0.0,45,0.00,CLR,SCT,0.09,0.0,WeatherDisplay:10.37,2013-11-18 02:23:00,
2013-11-17 20:28:00,45.5,25.4,29.44,ESE,112,0.0,0.0,45,0.00,CLR,SCT,0.09,0.0,WeatherDisplay:10.37,2013-11-18 02:28:00,
2013-11-17 20:33:00,45.5,25.4,29.44,ESE,112,0.0,0.0,45,0.00,CLR,SCT,0.09,0.0,WeatherDisplay:10.37,2013-11-18 02:33:00,
2013-11-17 20:38:00,45.5,25.4,29.44,ESE,112,0.0,0.0,45,0.00,CLR,SCT,0.09,0.0,WeatherDisplay:10.37,2013-11-18 02:38:00,
2013-11-17 20:43:00,45.5,25.4,29.44,ESE,112,0.0,0.0,45,0.00,CLR,SCT,0.09,0.0,WeatherDisplay:10.37,2013-11-18 02:43:00,
2013-11-17 20:48:00,45.5,25.4,29.44,ESE,112,0.0,0.0,45,0.00,CLR,SCT,0.09,0.0,WeatherDisplay:10.37,2013-11-18 02:48:00,
2013-11-17 20:53:00,45.5,25.4,29.44,ESE,112,0.0,0.0,45,0.00,CLR,SCT,0.09,0.0,WeatherDisplay:10.37,2013-11-18 02:53:00,
2013-11-17 20:58:00,45.5,25.4,29.44,ESE,112,0.0,0.0,45,0.00,CLR,SCT,0.09,0.0,WeatherDisplay:10.37,2013-11-18 02:58:00,
2013-11-17 21:03:00,45.5,25.4,29.44,ESE,112,0.0,0.0,45,0.00,CLR,SCT,0.09,0.0,WeatherDisplay:10.37,2013-11-18 03:03:00,
2013-11-17 21:08:00,45.5,25.4,29.44,ESE,112,0.0,0.0,45,0.00,CLR,SCT,0.09,0.0,WeatherDisplay:10.37,2013-11-18 03:08:00,
2013-11-17 21:13:00,45.5,25.4,29.44,ESE,112,0.0,0.0,45,0.00,CLR,SCT,0.09,0.0,WeatherDisplay:10.37,2013-11-18 03:13:00,
2013-11-17 21:18:00,45.5,25.4,29.44,ESE,112,0.0,0.0,45,0.00,CLR,SCT,0.09,0.0,WeatherDisplay:10.37,2013-11-18 03:18:00,
2013-11-17 21:23:00,45.5,25.4,29.44,ESE,112,0.0,0.0,45,0.00,CLR,SCT,0.09,0.0,WeatherDisplay:10.37,2013-11-18 03:23:00,
2013-11-17 21:28:00,45.5,25.4,29.44,ESE,112,0.0,0.0,45,0.00,CLR,SCT,0.09,0.0,WeatherDisplay:10.37,2013-11-18 03:28:00,
2013-11-17 21:33:00,45.5,25.4,29.44,ESE,112,0.0,0.0,45,0.00,CLR,SCT,0.09,0.0,WeatherDisplay:10.37,2013-11-18 03:33:00,
2013-11-17 21:38:00,45.5,25.4,29.44,ESE,112,0.0,0.0,45,0.00,CLR,SCT,0.09,0.0,WeatherDisplay:10.37,2013-11-18 03:38:00,
2013-11-17 21:43:00,45.5,25.4,29.44,ESE,112,0.0,0.0,45,0.00,CLR,SCT,0.09,0.0,WeatherDisplay:10.37,2013-11-18 03:43:00,
2013-11-17 21:48:00,45.5,25.4,29.44,ESE,112,0.0,0.0,45,0.00,CLR,SCT,0.09,0.0,WeatherDisplay:10.37,2013-11-18 03:48:00,
2013-11-17 21:53:00,45.5,25.4,29.44,ESE,112,0.0,0.0,45,0.00,CLR,SCT,0.09,0.0,WeatherDisplay:10.37,2013-11-18 03:53:00,
2013-11-17 21:58:00,45.5,25.4,29.44,ESE,112,0.0,0.0,45,0.00,CLR,SCT,0.09,0.0,WeatherDisplay:10.37,2013-11-18 03:58:00,
2013-11-17 22:03:00,45.5,25.4,29.44,ESE,112,0.0,0.0,45,0.00,CLR,SCT,0.09,0.0,WeatherDisplay:10.37,2013-11-18 04:03:00,
2013-11-17 22:08:00,45.5,25.4,29.44,ESE,112,0.0,0.0,45,0.00,CLR,SCT,0.09,0.0,WeatherDisplay:10.37,2013-11-18 04:08:00,
2013-11-17 22:13:00,45.5,25.4,29.44,ESE,112,0.0,0.0,45,0.00,CLR,SCT,0.09,0.0,WeatherDisplay:10.37,2013-11-18 04:13:00,
2013-11-17 22:19:00,45.5,25.4,29.44,ESE,112,0.0,0.0,45,0.00,CLR,SCT,0.09,0.0,WeatherDisplay:10.37,2013-11-18 04:19:00,
2013-11-17 22:24:00,45.5,25.4,29.44,ESE,112,0.0,0.0,45,0.00,CLR,SCT,0.09,0.0,WeatherDisplay:10.37,2013-11-18 04:24:00,
2013-11-17 22:29:00,45.5,25.4,29.44,ESE,112,0.0,0.0,45,0.00,CLR,SCT,0.09,0.0,WeatherDisplay:10.37,2013-11-18 04:29:00,
2013-11-17 22:34:00,45.5,25.4,29.44,ESE,112,0.0,0.0,45,0.00,CLR,SCT,0.09,0.0,WeatherDisplay:10.37,2013-11-18 04:34:00,
2013-11-17 22:39:00,45.5,25.4,29.44,ESE,112,0.0,0.0,45,0.00,CLR,SCT,0.09,0.0,WeatherDisplay:10.37,2013-11-18 04:39:00,
2013-11-17 22:44:00,45.5,25.4,29.44,ESE,112,0.0,0.0,45,0.00,CLR,SCT,0.09,0.0,WeatherDisplay:10.37,2013-11-18 04:44:00,
2013-11-17 22:49:00,45.5,25.4,29.44,ESE,112,0.0,0.0,45,0.00,CLR,SCT,0.09,0.0,WeatherDisplay:10.37,2013-11-18 04:49:00,
2013-11-17 22:54:00,45.5,25.4,29.44,ESE,112,0.0,0.0,45,0.00,CLR,SCT,0.09,0.0,WeatherDisplay:10.37,2013-11-18 04:54:00,
2013-11-17 22:59:00,45.5,25.4,29.44,ESE,112,0.0,0.0,45,0.00,CLR,SCT,0.09,0.0,WeatherDisplay:10.37,2013-11-18 04:59:00,
2013-11-17 23:01:00,45.5,25.4,29.44,ESE,112,0.0,0.0,45,0.00,CLR,SCT,0.09,0.0,WeatherDisplay:10.37,2013-11-18 05:01:00,
2013-11-17 23:02:00,45.5,25.4,29.44,ESE,112,0.0,0.0,45,0.00,CLR,SCT,0.09,0.0,WeatherDisplay:10.37,2013-11-18 05:02:00,
2013-11-17 23:03:00,45.5,25.4,29.44,ESE,112,0.0,0.0,45,0.00,CLR,SCT,0.09,0.0,WeatherDisplay:10.37,2013-11-18 05:03:00,
2013-11-17 23:08:00,45.5,25.4,29.44,ESE,112,0.0,0.0,45,0.00,CLR,SCT,0.09,0.0,WeatherDisplay:10.37,2013-11-18 05:08:00,
2013-11-17 23:13:00,45.5,25.4,29.44,ESE,112,0.0,0.0,45,0.00,CLR,SCT,0.09,0.0,WeatherDisplay:10.37,2013-11-18 05:13:00,
2013-11-17 23:18:00,45.5,25.4,29.44,ESE,112,0.0,0.0,45,0.00,CLR,SCT,0.09,0.0,WeatherDisplay:10.37,2013-11-18 05:18:00,
2013-11-17 23:23:00,45.5,25.4,29.44,ESE,112,0.0,0.0,45,0.00,CLR,SCT,0.09,0.0,WeatherDisplay:10.37,2013-11-18 05:23:00,
2013-11-17 23:28:00,45.5,25.4,29.44,ESE,112,0.0,0.0,45,0.00,CLR,SCT,0.09,0.0,WeatherDisplay:10.37,2013-11-18 05:28:00,
2013-11-17 23:34:00,45.5,25.4,29.44,ESE,112,0.0,0.0,45,0.00,CLR,SCT,0.09,0.0,WeatherDisplay:10.37,2013-11-18 05:34:00,
2013-11-17 23:39:00,45.5,25.4,29.44,ESE,112,0.0,0.0,45,0.00,CLR,SCT,0.09,0.0,WeatherDisplay:10.37,2013-11-18 05:39:00,
2013-11-17 23:44:00,45.5,25.4,29.44,ESE,112,0.0,0.0,45,0.00,CLR,SCT,0.09,0.0,WeatherDisplay:10.37,2013-11-18 05:44:00,
2013-11-17 23:49:00,45.5,25.4,29.44,ESE,112,0.0,0.0,45,0.00,CLR,SCT,0.09,0.0,WeatherDisplay:10.37,2013-11-18 05:49:00,
2013-11-17 23:54:00,45.5,25.4,29.44,ESE,112,0.0,0.0,45,0.00,CLR,SCT,0.09,0.0,WeatherDisplay:10.37,2013-11-18 05:54:00,
2013-11-17 23:59:00,45.5,25.4,29.44,ESE,112,0.0,0.0,45,0.00,CLR,SCT,0.09,0.0,WeatherDisplay:10.37,2013-11-18 05:59:00,